Time;durP1;ratioP1;P1;durP2;ratioP2;P2;SDS_P1;SDS_P2;PMS_P1;PMS_P2;Temp;Humidity;BMP_temperature;BMP_pressure;BME280_temperature;BME280_humidity;BME280_pressure;Samples;Min_cycle;Max_cycle;Signal;HPM_P1;HPM_P2
2023/12/16 00:00:51;;;;;;;1999.90;999.90;;;7.60;99.90;;;;;;5076866;28;20028;-82
2023/12/16 00:03:17;;;;;;;1999.90;999.90;;;7.60;99.90;;;;;;5085253;28;20126;-82
2023/12/16 00:05:43;;;;;;;1999.90;999.90;;;7.70;99.90;;;;;;5062200;28;20044;-82
2023/12/16 00:08:09;;;;;;;1999.90;999.90;;;7.70;99.90;;;;;;5065524;28;20464;-82
2023/12/16 00:10:34;;;;;;;1999.90;999.90;;;7.70;99.90;;;;;;5076997;28;20044;-82
2023/12/16 00:13:00;;;;;;;1999.90;999.90;;;7.60;99.90;;;;;;5072045;28;20123;-82
2023/12/16 00:15:26;;;;;;;1999.90;999.90;;;7.50;99.90;;;;;;5069682;28;20515;-81
2023/12/16 00:17:51;;;;;;;1999.90;999.90;;;7.50;99.90;;;;;;5079153;28;20472;-82
2023/12/16 00:20:17;;;;;;;1999.90;999.90;;;7.50;99.90;;;;;;5063107;28;20032;-82
2023/12/16 00:22:44;;;;;;;1999.90;999.90;;;7.40;99.90;;;;;;5084068;28;20036;-82
2023/12/16 00:25:10;;;;;;;1999.90;999.90;;;7.40;99.90;;;;;;5063573;28;20540;-82
2023/12/16 00:27:36;;;;;;;1999.90;999.90;;;7.40;99.90;;;;;;5063139;28;20044;-81
2023/12/16 00:30:02;;;;;;;1999.90;999.90;;;7.40;99.90;;;;;;5077099;28;20484;-81
2023/12/16 00:32:28;;;;;;;1999.90;999.90;;;7.30;99.90;;;;;;5087733;28;20035;-82
2023/12/16 00:34:54;;;;;;;1999.90;999.90;;;7.30;99.90;;;;;;5084552;28;20035;-82
2023/12/16 00:37:20;;;;;;;1999.90;999.90;;;7.20;99.90;;;;;;5071025;28;21373;-82
2023/12/16 00:39:46;;;;;;;1999.90;999.90;;;7.10;99.90;;;;;;5075696;28;20484;-82
2023/12/16 00:42:11;;;;;;;1999.90;999.90;;;7.10;99.90;;;;;;5061237;28;20068;-82
2023/12/16 00:44:37;;;;;;;1999.90;999.90;;;7.00;99.90;;;;;;5076159;28;20031;-81
2023/12/16 00:47:03;;;;;;;1999.90;999.90;;;6.90;99.90;;;;;;5080602;28;20044;-81
2023/12/16 00:49:29;;;;;;;1999.90;999.90;;;6.90;99.90;;;;;;5074874;28;20082;-82
2023/12/16 00:51:56;;;;;;;1999.90;999.90;;;6.80;99.90;;;;;;5084901;28;20039;-82
2023/12/16 00:54:22;;;;;;;1999.90;999.90;;;6.70;99.90;;;;;;5084280;28;20039;-82
2023/12/16 00:56:48;;;;;;;1999.90;999.90;;;6.70;99.90;;;;;;5068784;28;20113;-82
2023/12/16 00:59:14;;;;;;;1999.90;999.90;;;6.70;99.90;;;;;;5081001;28;20039;-82
2023/12/16 01:01:39;;;;;;;1999.90;999.90;;;6.70;99.90;;;;;;5066170;28;20491;-82
2023/12/16 01:04:05;;;;;;;1999.90;999.90;;;6.70;99.90;;;;;;5079015;28;20055;-82
2023/12/16 01:06:31;;;;;;;1999.90;999.90;;;6.70;99.90;;;;;;5090374;28;20111;-82
2023/12/16 01:08:57;;;;;;;1999.90;999.90;;;6.70;99.90;;;;;;5102011;28;20473;-82
2023/12/16 01:11:23;;;;;;;1999.90;999.90;;;6.60;99.90;;;;;;5090359;28;20035;-82
2023/12/16 01:13:49;;;;;;;1999.90;999.90;;;6.60;99.90;;;;;;5078386;28;20454;-82
2023/12/16 01:16:14;;;;;;;1999.90;999.90;;;6.60;99.90;;;;;;5085369;28;20074;-82
2023/12/16 01:18:40;;;;;;;1999.90;999.90;;;6.50;99.90;;;;;;5074059;28;20062;-83
2023/12/16 01:21:06;;;;;;;1999.90;999.90;;;6.50;99.90;;;;;;5086386;28;20085;-82
2023/12/16 01:23:32;;;;;;;1999.90;999.90;;;6.60;99.90;;;;;;5068634;28;20040;-82
2023/12/16 01:25:58;;;;;;;1999.90;999.90;;;6.60;99.90;;;;;;5105183;28;20047;-82
2023/12/16 01:28:24;;;;;;;1999.90;999.90;;;6.60;99.90;;;;;;5072504;28;20472;-81
2023/12/16 01:30:51;;;;;;;1999.90;999.90;;;6.50;99.90;;;;;;5082381;28;20046;-82
2023/12/16 01:33:17;;;;;;;1999.90;999.90;;;6.60;99.90;;;;;;5076182;28;20051;-82
2023/12/16 01:35:42;;;;;;;1999.90;999.90;;;6.60;99.90;;;;;;5076664;28;20032;-82
2023/12/16 01:38:08;;;;;;;1999.90;999.90;;;6.60;99.90;;;;;;5072637;28;20399;-82
2023/12/16 01:40:34;;;;;;;1999.90;999.90;;;6.60;99.90;;;;;;5084392;28;20122;-82
2023/12/16 01:43:04;;;;;;;1999.90;999.90;;;6.50;99.90;;;;;;5057451;28;20044;-82
2023/12/16 01:45:29;;;;;;;1999.90;999.90;;;6.50;99.90;;;;;;5068716;28;20048;-82
2023/12/16 01:47:55;;;;;;;1999.90;999.90;;;6.50;99.90;;;;;;5085034;28;20060;-82
2023/12/16 01:50:22;;;;;;;1999.90;999.90;;;6.50;99.90;;;;;;5067708;28;20047;-82
2023/12/16 01:52:48;;;;;;;1999.90;999.90;;;6.50;99.90;;;;;;5060065;28;20040;-82
2023/12/16 01:55:14;;;;;;;1999.90;999.90;;;6.50;99.90;;;;;;5077291;28;20036;-82
2023/12/16 01:57:41;;;;;;;1999.90;999.90;;;6.40;99.90;;;;;;5081946;28;20036;-82
2023/12/16 02:00:07;;;;;;;1999.90;999.90;;;6.40;99.90;;;;;;5070884;28;20032;-82
2023/12/16 02:02:34;;;;;;;1999.90;999.90;;;6.40;99.90;;;;;;5055268;28;20052;-81
2023/12/16 02:05:00;;;;;;;1999.90;999.90;;;6.40;99.90;;;;;;5079438;28;20040;-82
2023/12/16 02:07:25;;;;;;;1999.90;999.90;;;6.40;99.90;;;;;;5052849;28;20645;-82
2023/12/16 02:09:51;;;;;;;1999.90;999.90;;;6.40;99.90;;;;;;5053367;28;20130;-82
2023/12/16 02:12:19;;;;;;;1999.90;999.90;;;6.40;99.90;;;;;;5050838;28;20135;-82
2023/12/16 02:14:45;;;;;;;1999.90;999.90;;;6.40;99.90;;;;;;5056053;28;20032;-81
2023/12/16 02:17:11;;;;;;;1999.90;999.90;;;6.50;99.90;;;;;;5059396;28;20043;-82
2023/12/16 02:19:38;;;;;;;1999.90;999.90;;;6.50;99.90;;;;;;5078099;28;20070;-82
2023/12/16 02:22:03;;;;;;;1999.90;999.90;;;6.40;99.90;;;;;;5085965;28;20478;-82
2023/12/16 02:24:31;;;;;;;1999.90;999.90;;;6.50;99.90;;;;;;5078347;28;20063;-82
2023/12/16 02:26:57;;;;;;;1999.90;999.90;;;6.50;99.90;;;;;;5067072;28;20097;-82
2023/12/16 02:29:23;;;;;;;1999.90;999.90;;;6.40;99.90;;;;;;5064691;28;20048;-82
2023/12/16 02:31:49;;;;;;;1999.90;999.90;;;6.50;99.90;;;;;;5089659;28;20039;-82
2023/12/16 02:34:15;;;;;;;1999.90;999.90;;;6.50;99.90;;;;;;5065405;28;20243;-82
2023/12/16 02:36:40;;;;;;;1999.90;999.90;;;6.60;99.90;;;;;;5081193;28;20383;-82
2023/12/16 02:39:06;;;;;;;1999.90;999.90;;;6.60;99.90;;;;;;5078127;28;20032;-82
2023/12/16 02:41:31;;;;;;;1999.90;999.90;;;6.50;99.90;;;;;;5075647;28;20040;-82
2023/12/16 02:43:57;;;;;;;1999.90;999.90;;;6.50;99.90;;;;;;5080577;28;20072;-82
2023/12/16 02:46:24;;;;;;;1999.90;999.90;;;6.50;99.90;;;;;;5087469;28;20043;-82
2023/12/16 02:48:50;;;;;;;1999.90;999.90;;;6.40;99.90;;;;;;5060799;28;20048;-82
2023/12/16 02:51:20;;;;;;;1999.90;999.90;;;6.40;99.90;;;;;;5076228;28;20040;-82
2023/12/16 02:53:45;;;;;;;1999.90;999.90;;;6.40;99.90;;;;;;5076451;28;20586;-82
2023/12/16 02:56:12;;;;;;;1999.90;999.90;;;6.30;99.90;;;;;;5105086;28;20046;-82
2023/12/16 02:58:39;;;;;;;1999.90;999.90;;;6.30;99.90;;;;;;5083579;28;20487;-82
2023/12/16 03:01:05;;;;;;;1999.90;999.90;;;6.20;99.90;;;;;;5079435;28;20044;-82
2023/12/16 03:03:31;;;;;;;1999.90;999.90;;;6.20;99.90;;;;;;5105833;28;20103;-82
2023/12/16 03:06:03;;;;;;;1999.90;999.90;;;6.10;99.90;;;;;;5064494;28;20453;-82
2023/12/16 03:08:28;;;;;;;1999.90;999.90;;;6.10;99.90;;;;;;5099778;28;20051;-82
2023/12/16 03:10:54;;;;;;;1999.90;999.90;;;6.10;99.90;;;;;;5079275;28;20092;-82
2023/12/16 03:13:20;;;;;;;1999.90;999.90;;;6.00;99.90;;;;;;5079198;28;20567;-82
2023/12/16 03:15:45;;;;;;;1999.90;999.90;;;6.00;99.90;;;;;;5086062;28;20031;-82
2023/12/16 03:18:11;;;;;;;1999.90;999.90;;;6.00;99.90;;;;;;5074925;28;20043;-81
2023/12/16 03:20:37;;;;;;;1999.90;999.90;;;6.00;99.90;;;;;;5081117;28;20518;-82
2023/12/16 03:23:02;;;;;;;1999.90;999.90;;;6.00;99.90;;;;;;5066555;28;20040;-82
2023/12/16 03:25:28;;;;;;;1999.90;999.90;;;6.00;99.90;;;;;;5080339;28;20028;-82
2023/12/16 03:27:54;;;;;;;1999.90;999.90;;;6.00;99.90;;;;;;5075755;28;20043;-82
2023/12/16 03:30:20;;;;;;;1999.90;999.90;;;5.90;99.90;;;;;;5066508;28;20046;-82
2023/12/16 03:32:45;;;;;;;1999.90;999.90;;;5.90;99.90;;;;;;5063906;28;20504;-82
2023/12/16 03:35:11;;;;;;;1999.90;999.90;;;5.90;99.90;;;;;;5085121;28;20093;-82
2023/12/16 03:37:37;;;;;;;1999.90;999.90;;;5.90;99.90;;;;;;5082020;28;20036;-82
2023/12/16 03:40:03;;;;;;;1999.90;999.90;;;5.80;99.90;;;;;;5076874;28;20042;-82
2023/12/16 03:42:29;;;;;;;1999.90;999.90;;;5.80;99.90;;;;;;5079118;28;20035;-82
2023/12/16 03:44:55;;;;;;;1999.90;999.90;;;5.70;99.90;;;;;;5059996;28;20651;-82
2023/12/16 03:47:20;;;;;;;1999.90;999.90;;;5.70;99.90;;;;;;5083116;28;20036;-82
2023/12/16 03:49:46;;;;;;;1999.90;999.90;;;5.60;99.90;;;;;;5068240;28;20036;-82
2023/12/16 03:52:14;;;;;;;1999.90;999.90;;;5.50;99.90;;;;;;5070591;28;20047;-82
2023/12/16 03:54:40;;;;;;;1999.90;999.90;;;5.40;99.90;;;;;;5083777;28;20089;-82
2023/12/16 03:57:06;;;;;;;1999.90;999.90;;;5.30;99.90;;;;;;5102293;28;20116;-82
2023/12/16 03:59:31;;;;;;;1999.90;999.90;;;5.20;99.90;;;;;;5061946;28;20123;-82
2023/12/16 04:01:57;;;;;;;1999.90;999.90;;;5.20;99.90;;;;;;5056673;28;20564;-82
2023/12/16 04:04:22;;;;;;;1999.90;999.90;;;5.20;99.90;;;;;;5089612;28;20495;-82
2023/12/16 04:06:48;;;;;;;1999.90;999.90;;;5.10;99.90;;;;;;5081918;28;20496;-82
2023/12/16 04:09:14;;;;;;;1999.90;999.90;;;5.20;99.90;;;;;;5089957;28;20039;-82
2023/12/16 04:11:47;;;;;;;1999.90;999.90;;;5.20;99.90;;;;;;5059796;28;20040;-82
2023/12/16 04:14:12;;;;;;;1999.90;999.90;;;5.30;99.90;;;;;;5077238;28;20040;-82
2023/12/16 04:16:38;;;;;;;1999.90;999.90;;;5.30;99.90;;;;;;5073500;28;20036;-83
2023/12/16 04:19:04;;;;;;;1999.90;999.90;;;5.30;99.90;;;;;;5070579;28;20036;-82
2023/12/16 04:21:32;;;;;;;1999.90;999.90;;;5.40;99.90;;;;;;5091162;28;20392;-82
2023/12/16 04:24:00;;;;;;;1999.90;999.90;;;5.40;99.90;;;;;;5064350;28;20443;-82
2023/12/16 04:26:26;;;;;;;1999.90;999.90;;;5.40;99.90;;;;;;5078761;28;20483;-82
2023/12/16 04:28:51;;;;;;;1999.90;999.90;;;5.40;99.90;;;;;;5065518;28;20150;-82
2023/12/16 04:31:17;;;;;;;1999.90;999.90;;;5.40;99.90;;;;;;5083346;28;20044;-83
2023/12/16 04:33:43;;;;;;;1999.90;999.90;;;5.40;99.90;;;;;;5069194;28;20080;-82
2023/12/16 04:36:16;;;;;;;1999.90;999.90;;;5.40;99.90;;;;;;5078203;28;20040;-82
2023/12/16 04:38:43;;;;;;;1999.90;999.90;;;5.50;99.90;;;;;;5080874;28;20171;-82
2023/12/16 04:41:12;;;;;;;1999.90;999.90;;;5.40;99.90;;;;;;5077018;28;20115;-82
2023/12/16 04:43:39;;;;;;;1999.90;999.90;;;5.40;99.90;;;;;;5069678;28;20586;-82
2023/12/16 04:46:05;;;;;;;1999.90;999.90;;;5.40;99.90;;;;;;5086005;28;20044;-82
2023/12/16 04:48:31;;;;;;;1999.90;999.90;;;5.40;99.90;;;;;;5064894;28;20055;-82
2023/12/16 04:51:04;;;;;;;1999.90;999.90;;;5.40;99.90;;;;;;5088099;28;20047;-82
2023/12/16 04:53:30;;;;;;;1999.90;999.90;;;5.40;99.90;;;;;;5103288;28;20415;-82
2023/12/16 04:55:56;;;;;;;1999.90;999.90;;;5.40;99.90;;;;;;5061652;28;20417;-82
2023/12/16 04:58:22;;;;;;;1999.90;999.90;;;5.40;99.90;;;;;;5080633;28;20038;-82
2023/12/16 05:00:47;;;;;;;1999.90;999.90;;;5.40;99.90;;;;;;5060486;28;20081;-82
2023/12/16 05:03:13;;;;;;;1999.90;999.90;;;5.40;99.90;;;;;;5067081;28;20036;-83
2023/12/16 05:05:39;;;;;;;1999.90;999.90;;;5.50;99.90;;;;;;5059613;28;20043;-82
2023/12/16 05:08:04;;;;;;;1999.90;999.90;;;5.50;99.90;;;;;;5073310;28;20047;-82
2023/12/16 05:10:30;;;;;;;1999.90;999.90;;;5.50;99.90;;;;;;5076493;28;20385;-82
2023/12/16 05:12:56;;;;;;;1999.90;999.90;;;5.60;99.90;;;;;;5078312;28;20483;-82
2023/12/16 05:15:22;;;;;;;1999.90;999.90;;;5.60;99.90;;;;;;5091309;28;20408;-83
2023/12/16 05:17:47;;;;;;;1999.90;999.90;;;5.70;99.90;;;;;;5071799;28;20043;-82
2023/12/16 05:20:14;;;;;;;1999.90;999.90;;;5.70;99.90;;;;;;5104161;28;20050;-81
2023/12/16 05:22:40;;;;;;;1999.90;999.90;;;5.70;99.90;;;;;;5079905;28;20455;-82
2023/12/16 05:25:06;;;;;;;1999.90;999.90;;;5.70;99.90;;;;;;5065003;28;20036;-82
2023/12/16 05:27:32;;;;;;;1999.90;999.90;;;5.80;99.90;;;;;;5060730;28;20043;-82
2023/12/16 05:30:00;;;;;;;1999.90;999.90;;;5.80;99.90;;;;;;5084005;28;20058;-82
2023/12/16 05:32:28;;;;;;;1999.90;999.90;;;5.80;99.90;;;;;;5080231;28;20043;-82
2023/12/16 05:34:54;;;;;;;1999.90;999.90;;;5.80;99.90;;;;;;5086232;28;20404;-82
2023/12/16 05:37:20;;;;;;;1999.90;999.90;;;5.80;99.90;;;;;;5084932;28;20100;-82
2023/12/16 05:39:47;;;;;;;1999.90;999.90;;;5.90;99.90;;;;;;5082656;28;20039;-82
2023/12/16 05:42:13;;;;;;;1999.90;999.90;;;6.00;99.90;;;;;;5064507;28;20526;-82
2023/12/16 05:44:39;;;;;;;1999.90;999.90;;;6.10;99.90;;;;;;5079055;28;20036;-82
2023/12/16 05:47:07;;;;;;;1999.90;999.90;;;6.20;99.90;;;;;;5071526;28;20216;-82
2023/12/16 05:49:32;;;;;;;1999.90;999.90;;;6.30;99.90;;;;;;5064937;28;20436;-82
2023/12/16 05:51:58;;;;;;;1999.90;999.90;;;6.40;99.90;;;;;;5065796;28;20082;-82
2023/12/16 05:54:24;;;;;;;1999.90;999.90;;;6.50;99.90;;;;;;5083454;28;20036;-82
2023/12/16 05:56:50;;;;;;;1999.90;999.90;;;6.60;99.90;;;;;;5074691;28;20074;-82
2023/12/16 05:59:17;;;;;;;1999.90;999.90;;;6.60;99.90;;;;;;5099932;28;20404;-83
2023/12/16 06:01:44;;;;;;;1999.90;999.90;;;6.70;99.90;;;;;;5078053;28;20036;-82
2023/12/16 06:04:09;;;;;;;1999.90;999.90;;;6.80;99.90;;;;;;5066931;28;20047;-82
2023/12/16 06:06:35;;;;;;;1999.90;999.90;;;6.90;99.90;;;;;;5087578;28;20643;-83
2023/12/16 06:09:01;;;;;;;1999.90;999.90;;;7.00;99.90;;;;;;5079952;28;20047;-82
2023/12/16 06:11:26;;;;;;;1999.90;999.90;;;7.10;99.90;;;;;;5099932;28;20109;-82
2023/12/16 06:13:52;;;;;;;1999.90;999.90;;;7.20;99.90;;;;;;5079929;28;20083;-81
2023/12/16 06:16:18;;;;;;;1999.90;999.90;;;7.20;99.90;;;;;;5077211;28;20746;-82
2023/12/16 06:18:45;;;;;;;1999.90;999.90;;;7.20;99.90;;;;;;5071811;28;20082;-82
2023/12/16 06:21:11;;;;;;;1999.90;999.90;;;7.30;99.90;;;;;;5068682;28;20040;-82
2023/12/16 06:23:37;;;;;;;1999.90;999.90;;;7.30;99.90;;;;;;5078199;28;20042;-82
2023/12/16 06:26:03;;;;;;;1999.90;999.90;;;7.30;99.90;;;;;;5062253;28;20127;-82
2023/12/16 06:28:29;;;;;;;1999.90;999.90;;;7.40;99.90;;;;;;5075555;28;20052;-82
2023/12/16 06:30:54;;;;;;;1999.90;999.90;;;7.40;99.90;;;;;;5091643;28;20059;-82
2023/12/16 06:33:22;;;;;;;1999.90;999.90;;;7.40;99.90;;;;;;5066574;28;20028;-82
2023/12/16 06:35:48;;;;;;;1999.90;999.90;;;7.40;99.90;;;;;;5094714;28;20551;-82
2023/12/16 06:38:14;;;;;;;1999.90;999.90;;;7.40;99.90;;;;;;5076878;28;20062;-82
2023/12/16 06:40:40;;;;;;;1999.90;999.90;;;7.50;99.90;;;;;;5062447;28;20368;-82
2023/12/16 06:43:06;;;;;;;1999.90;999.90;;;7.50;99.90;;;;;;5068330;28;20040;-82
2023/12/16 06:45:32;;;;;;;1999.90;999.90;;;7.50;99.90;;;;;;5059556;28;20051;-82
2023/12/16 06:47:58;;;;;;;1999.90;999.90;;;7.50;99.90;;;;;;5080574;28;20059;-82
2023/12/16 06:50:23;;;;;;;1999.90;999.90;;;7.50;99.90;;;;;;5084851;28;20714;-82
2023/12/16 06:52:49;;;;;;;1999.90;999.90;;;7.60;99.90;;;;;;5060308;28;20068;-82
2023/12/16 06:55:15;;;;;;;1999.90;999.90;;;7.60;99.90;;;;;;5071295;28;20680;-82
2023/12/16 06:57:41;;;;;;;1999.90;999.90;;;7.70;99.90;;;;;;5078962;28;20128;-84
2023/12/16 07:00:09;;;;;;;1999.90;999.90;;;7.70;99.90;;;;;;5074041;28;20556;-83
2023/12/16 07:02:41;;;;;;;1999.90;999.90;;;7.70;99.90;;;;;;5063125;28;20105;-82
2023/12/16 07:05:07;;;;;;;1999.90;999.90;;;7.70;99.90;;;;;;5060264;28;20052;-82
2023/12/16 07:07:33;;;;;;;1999.90;999.90;;;7.70;99.90;;;;;;5056693;28;20086;-82
2023/12/16 07:09:59;;;;;;;1999.90;999.90;;;7.60;99.90;;;;;;5064797;28;20040;-82
2023/12/16 07:12:24;;;;;;;1999.90;999.90;;;7.60;99.90;;;;;;5073067;28;20712;-82
2023/12/16 07:14:50;;;;;;;1999.90;999.90;;;7.60;99.90;;;;;;5058449;28;20123;-82
2023/12/16 07:17:16;;;;;;;1999.90;999.90;;;7.60;99.90;;;;;;5060065;28;20462;-82
2023/12/16 07:19:41;;;;;;;1999.90;999.90;;;7.60;99.90;;;;;;5074465;28;20452;-82
2023/12/16 07:22:07;;;;;;;1999.90;999.90;;;7.60;99.90;;;;;;5060563;28;20036;-83
2023/12/16 07:24:32;;;;;;;1999.90;999.90;;;7.60;99.90;;;;;;5077403;28;20036;-82
2023/12/16 07:26:58;;;;;;;1999.90;999.90;;;7.70;99.90;;;;;;5077792;28;20047;-82
2023/12/16 07:29:25;;;;;;;1999.90;999.90;;;7.60;99.90;;;;;;5085724;28;20304;-82
2023/12/16 07:31:51;;;;;;;1999.90;999.90;;;7.60;99.90;;;;;;5076955;28;20116;-82
2023/12/16 07:34:17;;;;;;;1999.90;999.90;;;7.60;99.90;;;;;;5084705;28;20136;-82
2023/12/16 07:36:43;;;;;;;1999.90;999.90;;;7.60;99.90;;;;;;5057978;28;20036;-81
2023/12/16 07:39:09;;;;;;;1999.90;999.90;;;7.60;99.90;;;;;;5063286;28;20043;-82
2023/12/16 07:41:35;;;;;;;1999.90;999.90;;;7.70;99.90;;;;;;5082188;28;20485;-82
2023/12/16 07:44:02;;;;;;;1999.90;999.90;;;7.60;99.90;;;;;;5079340;28;20066;-82
2023/12/16 07:46:28;;;;;;;1999.90;999.90;;;7.60;99.90;;;;;;5082747;28;20420;-82
2023/12/16 07:48:53;;;;;;;1999.90;999.90;;;7.60;99.90;;;;;;5059905;28;20056;-82
2023/12/16 07:51:25;;;;;;;1999.90;999.90;;;7.60;99.90;;;;;;5070793;28;20381;-82
2023/12/16 07:53:51;;;;;;;1999.90;999.90;;;7.60;99.90;;;;;;5055637;28;20067;-81
2023/12/16 07:56:24;;;;;;;1999.90;999.90;;;7.60;99.90;;;;;;5063482;28;20109;-82
2023/12/16 07:58:50;;;;;;;1999.90;999.90;;;7.70;99.90;;;;;;5067110;28;20044;-81
2023/12/16 08:01:18;;;;;;;1999.90;999.90;;;7.70;99.90;;;;;;5056262;28;20043;-82
2023/12/16 08:03:45;;;;;;;1999.90;999.90;;;7.70;99.90;;;;;;5067177;28;20046;-82
2023/12/16 08:06:10;;;;;;;1999.90;999.90;;;7.70;99.90;;;;;;5067063;28;20044;-82
2023/12/16 08:08:41;;;;;;;1999.90;999.90;;;7.70;99.90;;;;;;5065828;28;20067;-82
2023/12/16 08:11:07;;;;;;;1999.90;999.90;;;7.80;99.90;;;;;;5086987;28;20043;-82
2023/12/16 08:13:34;;;;;;;1999.90;999.90;;;7.80;99.90;;;;;;5065839;28;20039;-82
2023/12/16 08:16:00;;;;;;;1999.90;999.90;;;7.80;99.90;;;;;;5065449;28;20078;-82
2023/12/16 08:18:26;;;;;;;1999.90;999.90;;;7.80;99.90;;;;;;5068490;28;20127;-81
2023/12/16 08:20:52;;;;;;;1999.90;999.90;;;7.80;99.90;;;;;;5069914;28;20474;-82
2023/12/16 08:23:19;;;;;;;1999.90;999.90;;;7.90;99.90;;;;;;5056000;28;20071;-82
2023/12/16 08:25:45;;;;;;;1999.90;999.90;;;7.90;99.90;;;;;;5062462;28;20408;-82
2023/12/16 08:28:11;;;;;;;1999.90;999.90;;;7.90;99.90;;;;;;5071236;28;20040;-82
2023/12/16 08:30:37;;;;;;;1999.90;999.90;;;7.90;99.90;;;;;;5069704;28;20519;-82
2023/12/16 08:33:03;;;;;;;1999.90;999.90;;;8.00;99.90;;;;;;5053290;28;20048;-82
2023/12/16 08:35:29;;;;;;;1999.90;999.90;;;8.00;99.90;;;;;;5066688;28;20075;-82
2023/12/16 08:37:55;;;;;;;1999.90;999.90;;;8.00;99.90;;;;;;5065071;28;20473;-82
2023/12/16 08:40:21;;;;;;;1999.90;999.90;;;8.00;99.90;;;;;;5066973;28;20097;-82
2023/12/16 08:42:47;;;;;;;1999.90;999.90;;;8.00;99.90;;;;;;5067775;28;20051;-82
2023/12/16 08:45:14;;;;;;;1999.90;999.90;;;8.10;99.90;;;;;;5087400;28;20040;-82
2023/12/16 08:47:40;;;;;;;1999.90;999.90;;;8.00;99.90;;;;;;5049230;28;20440;-82
2023/12/16 08:50:07;;;;;;;1999.90;999.90;;;8.00;99.90;;;;;;5059388;28;20043;-82
2023/12/16 08:52:33;;;;;;;1999.90;999.90;;;8.00;99.90;;;;;;5062261;28;20579;-82
2023/12/16 08:54:59;;;;;;;1999.90;999.90;;;8.00;99.90;;;;;;5084705;28;20044;-82
2023/12/16 08:57:25;;;;;;;1999.90;999.90;;;8.00;99.90;;;;;;5066892;28;20066;-82
2023/12/16 08:59:50;;;;;;;1999.90;999.90;;;8.00;99.90;;;;;;5079990;28;20490;-82
2023/12/16 09:02:16;;;;;;;1999.90;999.90;;;8.00;99.90;;;;;;5079808;28;20136;-82
2023/12/16 09:04:42;;;;;;;1999.90;999.90;;;8.00;99.90;;;;;;5077874;28;20032;-82
2023/12/16 09:07:07;;;;;;;1999.90;999.90;;;8.00;99.90;;;;;;5082310;28;20044;-82
2023/12/16 09:09:33;;;;;;;1999.90;999.90;;;8.00;99.90;;;;;;5083445;28;20040;-82
2023/12/16 09:11:59;;;;;;;1999.90;999.90;;;8.00;99.90;;;;;;5060255;28;20036;-82
2023/12/16 09:14:24;;;;;;;1999.90;999.90;;;8.00;99.90;;;;;;5065069;28;20048;-82
2023/12/16 09:16:50;;;;;;;1999.90;999.90;;;7.90;99.90;;;;;;5061680;28;20044;-82
2023/12/16 09:19:15;;;;;;;1999.90;999.90;;;8.00;99.90;;;;;;5076396;28;20075;-82
2023/12/16 09:21:42;;;;;;;1999.90;999.90;;;7.90;99.90;;;;;;5075021;28;20036;-82
2023/12/16 09:24:07;;;;;;;1999.90;999.90;;;7.90;99.90;;;;;;5058161;28;20044;-82
2023/12/16 09:26:33;;;;;;;1999.90;999.90;;;8.00;99.90;;;;;;5066502;28;20454;-82
2023/12/16 09:29:00;;;;;;;1999.90;999.90;;;7.90;99.90;;;;;;5075290;28;20044;-82
2023/12/16 09:31:26;;;;;;;1999.90;999.90;;;7.90;99.90;;;;;;5076130;28;20660;-81
2023/12/16 09:33:52;;;;;;;1999.90;999.90;;;7.90;99.90;;;;;;5083423;28;20040;-82
2023/12/16 09:36:17;;;;;;;1999.90;999.90;;;8.00;99.90;;;;;;5077146;28;20036;-82
2023/12/16 09:38:43;;;;;;;1999.90;999.90;;;8.00;99.90;;;;;;5080119;28;20590;-82
2023/12/16 09:41:22;;;;;;;1999.90;999.90;;;7.90;99.90;;;;;;5078311;28;20089;-82
2023/12/16 09:43:53;;;;;;;1999.90;999.90;;;8.00;99.90;;;;;;5073872;28;20051;-81
2023/12/16 09:46:42;;;;;;;1999.90;999.90;;;8.00;99.90;;;;;;5091425;28;20504;-82
2023/12/16 09:49:35;;;;;;;1999.90;999.90;;;8.00;99.90;;;;;;5061881;28;20063;-81
2023/12/16 09:52:14;;;;;;;1999.90;999.90;;;8.00;99.90;;;;;;5078822;28;20108;-81
2023/12/16 09:55:07;;;;;;;1999.90;999.90;;;8.00;99.90;;;;;;5079148;28;20446;-81
2023/12/16 09:57:35;;;;;;;1999.90;999.90;;;8.00;99.90;;;;;;5097056;28;20043;-82
2023/12/16 10:00:02;;;;;;;1999.90;999.90;;;8.10;99.90;;;;;;5060650;28;20169;-81
2023/12/16 10:02:28;;;;;;;1999.90;999.90;;;8.10;99.90;;;;;;5077215;28;20075;-81
2023/12/16 10:04:56;;;;;;;1999.90;999.90;;;8.00;99.90;;;;;;5053791;28;20064;-81
2023/12/16 10:07:22;;;;;;;1999.90;999.90;;;8.10;99.90;;;;;;5076735;28;20100;-82
2023/12/16 10:09:47;;;;;;;1999.90;999.90;;;8.10;99.90;;;;;;5070884;28;20434;-81
2023/12/16 10:12:13;;;;;;;1999.90;999.90;;;8.10;99.90;;;;;;5059620;28;20771;-82
2023/12/16 10:14:50;;;;;;;1999.90;999.90;;;8.20;99.90;;;;;;5061598;28;20040;-83
2023/12/16 10:17:17;;;;;;;1999.90;999.90;;;8.20;99.90;;;;;;5078221;28;20040;-82
2023/12/16 10:19:44;;;;;;;1999.90;999.90;;;8.20;99.90;;;;;;5082172;28;20485;-83
2023/12/16 10:22:12;;;;;;;1999.90;999.90;;;8.20;99.90;;;;;;5050901;28;20040;-80
2023/12/16 10:24:40;;;;;;;1999.90;999.90;;;8.20;99.90;;;;;;5064378;28;20063;-82
2023/12/16 10:27:07;;;;;;;1999.90;999.90;;;8.20;99.90;;;;;;5062922;28;20393;-82
2023/12/16 10:29:33;;;;;;;1999.90;999.90;;;8.30;99.90;;;;;;5069765;28;20078;-82
2023/12/16 10:31:59;;;;;;;1999.90;999.90;;;8.30;99.90;;;;;;5057275;28;20045;-82
2023/12/16 10:34:31;;;;;;;1999.90;999.90;;;8.30;99.90;;;;;;5064492;28;20194;-82
2023/12/16 10:37:07;;;;;;;1999.90;999.90;;;8.30;99.90;;;;;;5079334;28;20044;-82
2023/12/16 10:39:34;;;;;;;1999.90;999.90;;;8.30;99.90;;;;;;5082799;28;20064;-82
2023/12/16 10:42:00;;;;;;;1999.90;999.90;;;8.40;99.90;;;;;;5059402;28;21480;-82
2023/12/16 10:44:26;;;;;;;1999.90;999.90;;;8.40;99.90;;;;;;5064331;28;20076;-81
2023/12/16 10:46:54;;;;;;;1999.90;999.90;;;8.50;99.90;;;;;;5061595;28;20052;-81
2023/12/16 10:49:29;;;;;;;1999.90;999.90;;;8.50;99.90;;;;;;5074249;28;20052;-83
2023/12/16 10:52:06;;;;;;;1999.90;999.90;;;8.60;99.90;;;;;;5074900;28;20071;-82
2023/12/16 10:54:39;;;;;;;1999.90;999.90;;;8.70;99.90;;;;;;5075078;28;20043;-82
2023/12/16 10:57:19;;;;;;;1999.90;999.90;;;8.70;99.90;;;;;;5081398;28;20044;-81
2023/12/16 10:59:58;;;;;;;1999.90;999.90;;;8.70;99.90;;;;;;5079556;28;20047;-82
2023/12/16 11:02:26;;;;;;;1999.90;999.90;;;8.70;99.90;;;;;;5083613;28;20036;-83
2023/12/16 11:05:00;;;;;;;1999.90;999.90;;;8.70;99.90;;;;;;5083514;28;20036;-84
2023/12/16 11:07:28;;;;;;;1999.90;999.90;;;8.80;99.90;;;;;;5068322;28;20118;-83
2023/12/16 11:09:55;;;;;;;1999.90;999.90;;;8.80;99.90;;;;;;5080486;28;20123;-81
2023/12/16 11:12:21;;;;;;;1999.90;999.90;;;8.80;99.90;;;;;;5064881;28;20403;-81
2023/12/16 11:14:48;;;;;;;1999.90;999.90;;;8.80;99.90;;;;;;5079707;28;20039;-81
2023/12/16 11:17:19;;;;;;;1999.90;999.90;;;8.80;99.90;;;;;;5083225;28;20094;-81
2023/12/16 11:19:59;;;;;;;1999.90;999.90;;;8.80;99.90;;;;;;5083370;28;20041;-81
2023/12/16 11:22:25;;;;;;;1999.90;999.90;;;8.80;99.90;;;;;;5080175;28;20142;-81
2023/12/16 11:24:57;;;;;;;1999.90;999.90;;;8.80;99.90;;;;;;5079260;28;20465;-81
2023/12/16 11:27:22;;;;;;;1999.90;999.90;;;8.80;99.90;;;;;;5060171;28;20044;-81
2023/12/16 11:29:49;;;;;;;1999.90;999.90;;;8.80;99.90;;;;;;5077991;28;20085;-81
2023/12/16 11:32:15;;;;;;;1999.90;999.90;;;8.80;99.90;;;;;;5063252;28;20081;-81
2023/12/16 11:34:49;;;;;;;1999.90;999.90;;;8.80;99.90;;;;;;5084066;28;20040;-81
2023/12/16 11:37:35;;;;;;;1999.90;999.90;;;8.80;99.90;;;;;;5060586;28;20162;-81
2023/12/16 11:40:07;;;;;;;1999.90;999.90;;;8.90;99.90;;;;;;5061542;28;20063;-83
2023/12/16 11:42:48;;;;;;;1999.90;999.90;;;8.90;99.90;;;;;;5059772;28;20036;-81
2023/12/16 11:45:36;;;;;;;1999.90;999.90;;;9.00;99.90;;;;;;5062239;28;20043;-81
2023/12/16 11:48:02;;;;;;;1999.90;999.90;;;9.00;99.90;;;;;;5060650;28;20105;-83
2023/12/16 11:50:27;;;;;;;1999.90;999.90;;;9.10;99.90;;;;;;5061766;28;20036;-80
2023/12/16 11:52:53;;;;;;;1999.90;999.90;;;9.10;99.90;;;;;;5061521;28;20482;-81
2023/12/16 11:55:19;;;;;;;1999.90;999.90;;;9.10;99.90;;;;;;5050025;28;20040;-81
2023/12/16 11:57:47;;;;;;;1999.90;999.90;;;9.10;99.90;;;;;;5062097;28;20793;-81
2023/12/16 12:00:16;;;;;;;1999.90;999.90;;;9.20;99.90;;;;;;5059523;28;20037;-80
2023/12/16 12:02:42;;;;;;;1999.90;999.90;;;9.10;99.90;;;;;;5062068;28;20421;-81
2023/12/16 12:05:12;;;;;;;1999.90;999.90;;;9.10;99.90;;;;;;5061291;28;20052;-80
2023/12/16 12:07:41;;;;;;;1999.90;999.90;;;9.10;99.90;;;;;;5060632;28;20040;-82